Latest Weather Observations for Jacup

IDW60801

Issued at 11:13 pm WST Wednesday 8 July 2020 (issued every 10 minutes, with the page automatically refreshed every 10 minutes)

About weather observations | Map of weather stations | Latest weather observations for WA | Other Formats
Station Details ID: 010905 Name: JACUP Lat: -33.89 Lon: 119.11 Height: 305.0 m
Data from the previous 72 hours. | See also: Recent months at Jacup
Date/Time
WST
Temp
°C
App
Temp
°C
Dew
Point
°C
Rel
Hum
%
Delta-T
°C
Wind Press
QNH
hPa
Press
MSL
hPa
Rain since
9am
mm
Dir  Spd
km/h
Gust
km/h
Spd
kts
Gust
kts
08/11:00pm 6.7 4.5 6.0 95 0.3 WSW 7 11 4 6 1023.3 1023.5 0.2
08/10:30pm 6.8 4.5 5.9 94 0.4 WSW 7 11 4 6 1023.1 1023.3 0.2
08/10:00pm 6.9 4.3 6.0 94 0.4 WSW 9 11 5 6 1023.0 1023.2 0.2
08/09:30pm 7.1 4.9 6.0 93 0.5 WSW 7 9 4 5 1023.0 1023.2 0.2
08/09:00pm 8.1 5.7 7.0 93 0.5 SW 9 15 5 8 1022.9 1023.1 0.2
08/08:30pm 9.0 6.0 7.8 92 0.6 SW 13 20 7 11 1022.9 1023.1 0.2
08/08:00pm 9.8 7.4 8.6 92 0.6 SW 11 17 6 9 1022.8 1023.0 0.2
08/07:30pm 10.1 7.7 8.5 90 0.8 SW 11 17 6 9 1022.7 1022.9 0.2
08/07:00pm 10.1 8.4 8.5 90 0.8 SW 7 9 4 5 1022.7 1022.9 0.0
08/06:30pm 10.1 8.1 8.5 90 0.8 SW 9 13 5 7 1022.6 1022.8 0.0
08/06:00pm 10.4 7.6 8.7 89 0.8 SW 13 20 7 11 1022.3 1022.5 0.0
08/05:30pm 10.5 7.7 8.4 87 1.0 SW 13 19 7 10 1022.0 1022.2 0.0
08/05:00pm 11.3 8.4 8.0 80 1.6 SW 13 19 7 10 1021.8 1022.0 0.0
08/04:30pm 11.7 8.9 8.4 80 1.7 SSW 13 20 7 11 1021.6 1021.8 0.0
08/04:00pm 13.1 9.2 6.9 66 3.0 SSW 17 26 9 14 1021.2 1021.3 0.0
08/03:30pm 13.7 9.6 6.1 60 3.7 SW 17 24 9 13 1021.0 1021.1 0.0
08/03:00pm 14.1 10.1 6.5 60 3.7 SW 17 26 9 14 1020.9 1021.0 0.0
08/02:30pm 14.4 10.2 5.5 55 4.3 SW 17 22 9 12 1020.7 1020.9 0.0
08/02:00pm 15.1 11.0 6.4 56 4.3 WSW 17 28 9 15 1020.6 1020.8 0.0
08/01:30pm 14.4 10.9 7.0 61 3.7 WSW 15 22 8 12 1020.9 1021.0 0.0
08/01:00pm 14.2 9.9 7.0 62 3.6 WSW 19 28 10 15 1021.2 1021.3 0.0
08/12:30pm 12.9 8.6 6.9 67 2.9 WSW 19 26 10 14 1021.4 1021.5 0.0
08/12:00pm 13.3 8.1 7.3 67 3.0 SW 24 33 13 18 1021.6 1021.8 0.0
08/11:30am 13.8 9.7 8.6 71 2.7 SW 20 35 11 19 1021.8 1022.0 0.0
08/11:00am 12.8 8.2 8.3 74 2.3 WSW 22 35 12 19 1021.8 1022.0 0.0
08/10:30am 11.9 7.0 8.6 80 1.7 WSW 24 35 13 19 1022.0 1022.2 0.0
08/10:00am 11.2 7.0 8.4 83 1.4 W 20 33 11 18 1022.2 1022.4 0.0
08/09:30am 9.8 5.8 8.2 90 0.8 W 19 28 10 15 1022.0 1022.2 0.0
08/09:00am 8.3 4.5 7.4 94 0.4 W 17 24 9 13 1022.0 1022.2 3.6
08/08:30am 7.6 3.7 7.0 96 0.3 WNW 17 24 9 13 1021.7 1021.9 3.6
08/08:00am 6.9 2.8 6.3 96 0.3 WNW 17 22 9 12 1021.4 1021.5 3.6
08/07:30am 6.1 2.2 5.5 96 0.3 WNW 15 22 8 12 1021.0 1021.1 3.6
08/07:00am 6.0 2.1 5.4 96 0.3 WNW 15 20 8 11 1020.7 1020.9 3.6
08/06:30am 6.0 2.5 5.4 96 0.3 WNW 13 19 7 10 1020.4 1020.6 3.6
08/06:00am 6.1 2.6 5.5 96 0.3 WNW 13 17 7 9 1020.3 1020.5 3.6
08/05:30am 6.4 2.6 5.8 96 0.3 WNW 15 20 8 11 1020.2 1020.4 3.6
08/05:00am 6.8 3.5 6.2 96 0.3 WNW 13 20 7 11 1020.0 1020.2 3.6
08/04:30am 6.7 3.7 6.0 95 0.3 WNW 11 15 6 8 1020.0 1020.2 3.6
08/04:00am 7.1 4.2 6.4 95 0.3 WNW 11 19 6 10 1020.0 1020.2 3.6
08/03:30am 7.2 3.9 6.5 95 0.3 WNW 13 19 7 10 1020.1 1020.3 3.6
08/03:00am 7.2 4.3 6.3 94 0.4 WNW 11 15 6 8 1020.1 1020.3 3.4
08/02:30am 8.0 4.9 7.1 94 0.4 WNW 13 17 7 9 1020.0 1020.2 3.4
08/02:00am 8.7 5.7 7.8 94 0.4 W 13 17 7 9 1020.0 1020.2 3.4
08/01:30am 9.2 6.3 8.3 94 0.4 WNW 13 22 7 12 1019.9 1020.1 3.0
08/01:00am 9.1 6.2 8.0 93 0.5 WNW 13 17 7 9 1019.5 1019.7 2.8
08/12:30am 9.4 6.9 8.3 93 0.5 WNW 11 17 6 9 1019.5 1019.7 2.8
08/12:00am 9.5 6.3 8.3 92 0.6 WNW 15 24 8 13 1019.8 1020.0 2.8
 
Date/Time
WST
Temp
°C
App
Temp
°C
Dew
Point
°C
Rel
Hum
%
Delta-T
°C
Wind Press
QNH
hPa
Press
MSL
hPa
Rain since
9am
mm
Dir  Spd
km/h
Gust
km/h
Spd
kts
Gust
kts
07/11:30pm 9.9 6.2 8.0 88 0.9 WNW 17 24 9 13 1019.9 1020.1 1.2
07/11:00pm 10.1 6.3 7.7 85 1.2 NW 17 24 9 13 1019.6 1019.8 0.0
07/10:30pm 10.0 5.8 7.3 83 1.3 WNW 19 26 10 14 1019.7 1019.9 0.0
07/10:00pm 9.8 5.4 7.2 84 1.2 NW 20 30 11 16 1019.6 1019.8 0.0
07/09:30pm 9.2 4.9 7.0 86 1.0 NW 19 26 10 14 1019.7 1019.9 0.0
07/09:00pm 8.8 4.8 6.8 87 0.9 NNW 17 26 9 14 1019.8 1020.0 0.0
07/08:30pm 8.9 5.0 6.9 87 1.0 NNW 17 24 9 13 1019.6 1019.8 0.0
07/08:00pm 9.2 6.0 7.0 86 1.0 NNW 13 17 7 9 1019.7 1019.9 0.0
07/07:30pm 9.5 6.7 6.8 83 1.3 NNW 11 15 6 8 1019.7 1019.9 0.0
07/07:00pm 10.4 7.2 6.9 79 1.7 NNW 13 19 7 10 1019.6 1019.8 0.0
07/06:30pm 11.2 7.9 6.5 73 2.3 NW 13 19 7 10 1019.5 1019.7 0.0
07/06:00pm 12.1 8.8 6.6 69 2.7 NW 13 17 7 9 1019.4 1019.6 0.0
07/05:30pm 12.6 9.3 6.6 67 2.9 WNW 13 19 7 10 1019.2 1019.4 0.0
07/05:00pm 12.5 9.1 5.9 64 3.1 WNW 13 19 7 10 1019.2 1019.4 0.0
07/04:30pm 13.4 8.8 5.8 60 3.6 WNW 19 28 10 15 1019.1 1019.3 0.0
07/04:00pm 14.1 9.3 5.7 57 4.0 WNW 20 30 11 16 1019.0 1019.2 0.0
07/03:30pm 14.1 8.6 5.7 57 4.0 WNW 24 39 13 21 1019.0 1019.2 0.0
07/03:00pm 14.3 8.3 5.1 54 4.4 WNW 26 37 14 20 1018.9 1019.1 0.0
07/02:30pm 14.7 8.7 5.2 53 4.5 WNW 26 39 14 21 1018.9 1019.1 0.0
07/02:00pm 16.4 11.1 5.1 47 5.5 WNW 22 35 12 19 1018.7 1018.8 0.0
07/01:30pm 14.9 9.4 5.7 54 4.5 WNW 24 41 13 22 1018.8 1019.0 0.0
07/01:00pm 15.5 9.8 6.5 55 4.4 WNW 26 39 14 21 1018.9 1019.1 0.0
07/12:30pm 13.9 8.5 6.5 61 3.6 WNW 24 41 13 22 1019.1 1019.3 0.0
07/12:00pm 15.8 10.7 7.8 59 4.1 W 24 35 13 19 1019.1 1019.3 0.0
07/11:30am 15.1 9.7 7.9 62 3.7 WNW 26 43 14 23 1019.6 1019.8 0.0
07/11:00am 14.5 8.6 7.5 63 3.5 W 28 41 15 22 1020.1 1020.3 0.0
07/10:30am 13.5 8.8 7.9 69 2.8 WNW 22 33 12 18 1020.3 1020.5 0.0
07/10:00am 13.5 8.6 8.6 72 2.5 WNW 24 33 13 18 1020.4 1020.6 0.0
07/09:30am 12.2 6.3 7.5 73 2.3 WNW 28 43 15 23 1020.3 1020.5 0.0
07/09:00am 11.4 6.3 7.5 77 1.9 WNW 24 35 13 19 1020.2 1020.4 1.4
07/08:30am 10.9 5.7 7.2 78 1.8 WNW 24 39 13 21 1019.8 1020.0 1.4
07/08:00am 10.2 5.0 7.3 82 1.4 NW 24 39 13 21 1019.6 1019.8 1.4
07/07:30am 9.7 5.2 7.1 84 1.2 NW 20 35 11 19 1019.2 1019.4 1.4
07/07:00am 9.6 4.7 6.9 83 1.3 NW 22 35 12 19 1018.8 1019.0 1.4
07/06:30am 9.9 4.7 7.2 83 1.3 NW 24 35 13 19 1018.7 1018.8 1.4
07/06:00am 9.8 5.3 7.1 83 1.3 NW 20 32 11 17 1018.4 1018.5 1.4
07/05:30am 10.2 6.0 7.3 82 1.4 NW 19 30 10 16 1018.2 1018.3 1.4
07/05:00am 10.3 6.1 7.4 82 1.4 NW 19 28 10 15 1018.1 1018.2 1.4
07/04:30am 10.3 6.1 7.5 83 1.4 NW 19 30 10 16 1018.0 1018.1 1.4
07/04:00am 10.1 5.7 7.5 84 1.3 NW 20 35 11 19 1017.6 1017.7 1.4
07/03:30am 10.5 5.8 7.7 83 1.4 NW 22 33 12 18 1017.5 1017.6 1.4
07/03:00am 10.9 6.3 8.1 83 1.4 NW 22 37 12 20 1017.6 1017.7 1.4
07/02:30am 11.0 6.0 8.2 83 1.4 NW 24 37 13 20 1017.5 1017.6 1.4
07/02:00am 11.1 6.2 8.3 83 1.4 NW 24 35 13 19 1017.6 1017.7 1.4
07/01:30am 10.6 6.1 8.5 87 1.0 NW 22 35 12 19 1017.1 1017.3 1.4
07/01:00am 10.6 6.1 8.5 87 1.0 NW 22 33 12 18 1017.0 1017.2 1.4
07/12:30am 10.7 5.8 8.5 86 1.1 NW 24 37 13 20 1016.9 1017.1 1.4
07/12:00am 10.9 6.0 8.3 84 1.3 NW 24 32 13 17 1016.8 1017.0 1.4
 
Date/Time
WST
Temp
°C
App
Temp
°C
Dew
Point
°C
Rel
Hum
%
Delta-T
°C
Wind Press
QNH
hPa
Press
MSL
hPa
Rain since
9am
mm
Dir  Spd
km/h
Gust
km/h
Spd
kts
Gust
kts
06/11:30pm 11.3 6.0 8.5 83 1.4 NW 26 43 14 23 1016.9 1017.1 1.4
06/11:00pm 11.5 6.2 8.5 82 1.5 NW 26 43 14 23 1016.8 1017.0 1.4
06/10:30pm 11.8 6.9 8.3 79 1.8 NW 24 39 13 21 1016.6 1016.8 1.4
06/10:00pm 12.1 6.4 8.4 78 1.9 NW 28 41 15 22 1016.4 1016.6 1.4
06/09:30pm 12.2 6.9 8.3 77 2.0 NW 26 37 14 20 1016.3 1016.5 1.4
06/09:00pm 12.2 7.2 8.1 76 2.0 NW 24 35 13 19 1016.2 1016.4 1.4
06/08:48pm 12.5 6.8 8.2 75 2.2 NW 28 48 15 26 1016.2 1016.4 1.4
06/08:30pm 12.6 7.2 7.9 73 2.3 NW 26 43 14 23 1016.0 1016.2 1.4
06/08:14pm 12.8 7.0 7.9 72 2.4 NW 28 46 15 25 1016.2 1016.4 1.4
06/08:00pm 12.6 7.4 7.3 70 2.6 NW 24 35 13 19 1016.0 1016.2 1.4
06/07:30pm 13.1 8.3 7.3 68 2.9 NW 22 35 12 19 1016.0 1016.2 1.4
06/07:00pm 13.2 8.7 7.0 66 3.0 NW 20 33 11 18 1015.8 1015.9 1.4
06/06:30pm 12.6 8.9 6.4 66 3.0 NW 15 20 8 11 1015.6 1015.7 1.4
06/06:00pm 13.3 9.6 6.4 63 3.4 NW 15 20 8 11 1015.3 1015.4 1.4
06/05:30pm 13.6 9.9 6.2 61 3.6 NW 15 22 8 12 1014.7 1014.8 1.4
06/05:00pm 14.6 10.4 5.9 56 4.2 NW 17 24 9 13 1014.6 1014.7 1.4
06/04:33pm 15.6 9.2 5.2 50 5.0 NW 28 46 15 25 1014.3 1014.4 1.4
06/04:30pm 15.8 10.2 5.4 50 5.0 NW 24 46 13 25 1014.2 1014.3 1.4
06/04:00pm 16.9 11.2 6.7 51 5.1 NW 26 41 14 22 1013.9 1014.1 1.4
06/03:45pm 16.8 10.8 7.2 53 4.9 NW 28 46 15 25 1013.8 1014.0 1.4
06/03:30pm 16.8 12.5 7.7 55 4.7 NW 20 35 11 19 1013.7 1013.9 1.4
06/03:00pm 17.0 10.7 7.6 54 4.8 NW 30 48 16 26 1013.4 1013.6 1.4
06/02:30pm 17.7 12.0 8.3 54 4.9 NW 28 46 15 25 1013.6 1013.8 1.4
06/02:03pm 17.7 12.2 9.1 57 4.5 NW 28 50 15 27 1013.8 1014.0 1.4
06/02:00pm 17.8 13.3 9.9 60 4.2 NW 24 39 13 21 1013.8 1014.0 1.4
06/01:30pm 17.3 13.2 11.3 68 3.3 NNW 24 39 13 21 1014.4 1014.5 1.4
06/01:00pm 15.0 12.0 12.1 83 1.6 NNW 19 26 10 14 1014.4 1014.5 1.4
06/12:30pm 13.7 9.5 11.0 84 1.4 NNW 24 32 13 17 1015.2 1015.3 1.4
06/12:00pm 13.6 10.0 11.7 88 1.0 NNW 22 33 12 18 1015.3 1015.4 1.4
06/11:30am 12.0 7.9 10.2 89 0.9 NNW 22 32 12 17 1015.8 1015.9 1.4
06/11:00am 13.3 9.0 9.5 78 2.0 NW 22 35 12 19 1016.6 1016.8 0.2
06/10:30am 16.4 12.1 7.9 57 4.4 NNW 20 33 11 18 1016.0 1016.2 0.0
06/10:00am 14.6 10.7 7.2 61 3.7 NNW 17 22 9 12 1016.3 1016.5 0.0
06/09:30am 14.1 10.1 6.7 61 3.6 N 17 26 9 14 1016.3 1016.5 0.0
06/09:00am 13.0 8.7 5.4 60 3.6 N 17 26 9 14 1016.0 1016.2 0.0
06/08:30am 12.4 7.7 5.3 62 3.3 N 19 28 10 15 1015.7 1015.8 0.0
06/08:00am 11.3 6.5 4.7 64 3.0 NNW 19 24 10 13 1015.2 1015.3 0.0
06/07:30am 10.5 5.5 4.4 66 2.8 NNW 20 28 11 15 1015.3 1015.4 0.0
06/07:00am 10.9 6.5 4.6 65 2.9 N 17 22 9 12 1014.7 1014.8 0.0
06/06:30am 12.0 7.3 5.0 62 3.3 N 19 24 10 13 1014.7 1014.8 0.0
06/06:00am 12.3 7.2 4.3 58 3.7 N 20 26 11 14 1015.0 1015.1 0.0
06/05:30am 12.8 7.9 4.0 55 4.0 N 19 26 10 14 1014.9 1015.0 0.0
06/05:00am 13.2 8.1 4.1 54 4.2 NNW 20 33 11 18 1015.1 1015.2 0.0
06/04:30am 12.2 7.1 3.9 57 3.8 NNE 20 26 11 14 1014.3 1014.4 0.0
06/04:00am 12.1 6.5 3.6 56 3.9 NNE 22 30 12 16 1014.2 1014.3 0.0
06/03:30am 12.5 6.5 3.5 54 4.1 NNE 24 33 13 18 1014.1 1014.2 0.0
06/03:00am 12.2 7.2 3.7 56 3.9 NNE 19 26 10 14 1014.1 1014.2 0.0
06/02:30am 12.7 7.8 3.9 55 4.0 NNE 19 28 10 15 1014.5 1014.6 0.0
06/02:00am 12.6 7.5 4.1 56 3.9 N 20 26 11 14 1015.0 1015.1 0.0
06/01:30am 13.1 8.6 4.0 54 4.2 NNE 17 22 9 12 1015.0 1015.1 0.0
06/01:00am 13.7 8.8 4.0 52 4.5 NNE 19 24 10 13 1015.2 1015.3 0.0
06/12:30am 13.1 9.0 4.3 55 4.1 NNE 15 20 8 11 1015.4 1015.5 0.0
06/12:00am 13.2 8.7 4.4 55 4.1 NE 17 26 9 14 1016.0 1016.2 0.0
 
Date/Time
WST
Temp
°C
App
Temp
°C
Dew
Point
°C
Rel
Hum
%
Delta-T
°C
Wind Press
QNH
hPa
Press
MSL
hPa
Rain since
9am
mm
Dir  Spd
km/h
Gust
km/h
Spd
kts
Gust
kts
05/11:30pm 13.1 8.7 4.5 56 4.0 NE 17 20 9 11 1016.4 1016.6 0.0

Other formats

Comma delimited format used in spreadsheet applications
http://www.bom.gov.au/fwo/IDW60801/IDW60801.95636.axf

JavaScript Object Notation format (JSON) in row-major order
http://www.bom.gov.au/fwo/IDW60801/IDW60801.95636.json

Data quality

Most of these data are generated automatically and are frequently updated. Quality checks on data are not normally performed. It is possible for incorrect values to appear. Refer to information at About Latest Weather Observations and please check the disclaimer before using these data.